createdAt,value
2022-10-14T00:01:19.876Z,19.10
2022-10-14T00:04:00.850Z,20.80
2022-10-14T00:06:31.200Z,20.60
2022-10-14T00:09:08.707Z,20.90
2022-10-14T00:11:39.283Z,20.00
2022-10-14T00:14:15.733Z,19.40
2022-10-14T00:16:45.409Z,20.70
2022-10-14T00:19:13.553Z,19.80
2022-10-14T00:21:44.378Z,20.90
2022-10-14T00:24:13.740Z,19.60
2022-10-14T00:26:41.838Z,19.70
2022-10-14T00:29:19.129Z,21.10
2022-10-14T00:31:47.196Z,19.70
2022-10-14T00:34:16.771Z,19.40
2022-10-14T00:36:44.768Z,19.10
2022-10-14T00:39:16.817Z,18.50
2022-10-14T00:41:45.529Z,19.30
2022-10-14T00:44:13.082Z,19.10
2022-10-14T00:46:49.395Z,18.70
2022-10-14T00:49:31.075Z,19.40
2022-10-14T00:52:04.455Z,20.30
2022-10-14T00:54:37.988Z,19.70
2022-10-14T00:57:06.404Z,19.90
2022-10-14T00:59:34.450Z,19.80
2022-10-14T01:02:02.479Z,19.80
2022-10-14T01:04:31.069Z,19.90
2022-10-14T01:07:23.286Z,20.70
2022-10-14T01:10:01.000Z,19.00
2022-10-14T01:12:53.627Z,20.10
2022-10-14T01:16:16.201Z,19.60
2022-10-14T01:19:27.176Z,20.40
2022-10-14T01:22:25.707Z,19.90
2022-10-14T01:25:08.866Z,20.00
2022-10-14T01:28:11.798Z,21.90
2022-10-14T01:30:56.334Z,22.80
2022-10-14T01:33:30.671Z,21.40
2022-10-14T01:36:27.875Z,19.80
2022-10-14T01:39:01.602Z,20.40
2022-10-14T01:41:42.269Z,21.60
2022-10-14T01:44:12.674Z,21.00
2022-10-14T01:46:46.816Z,21.00
2022-10-14T01:49:23.448Z,21.40
2022-10-14T01:51:55.812Z,21.00
2022-10-14T01:54:30.860Z,20.30
2022-10-14T01:57:03.027Z,22.20
2022-10-14T01:59:32.917Z,22.10
2022-10-14T02:02:00.736Z,20.40
2022-10-14T02:04:28.578Z,21.50
2022-10-14T02:07:35.586Z,20.80
2022-10-14T02:10:40.350Z,22.60
2022-10-14T02:13:14.700Z,20.80
2022-10-14T02:16:08.076Z,21.20
2022-10-14T02:18:45.813Z,22.70
2022-10-14T02:21:32.313Z,21.10
2022-10-14T02:26:37.881Z,21.90
2022-10-14T02:29:07.039Z,20.70
2022-10-14T02:31:39.125Z,20.10
2022-10-14T02:34:12.135Z,19.30
2022-10-14T02:36:42.236Z,20.40
2022-10-14T02:39:14.366Z,21.00
2022-10-14T02:41:42.276Z,20.60
2022-10-14T02:44:10.402Z,20.20
2022-10-14T02:46:40.905Z,20.80
2022-10-14T02:49:09.934Z,21.20
2022-10-14T02:51:37.852Z,19.90
2022-10-14T02:54:05.584Z,19.70
2022-10-14T02:56:33.440Z,22.70
2022-10-14T02:59:01.598Z,20.90
2022-10-14T03:01:33.801Z,21.60
2022-10-14T03:04:05.814Z,19.70
2022-10-14T03:06:34.066Z,19.50
2022-10-14T03:09:01.901Z,18.50
2022-10-14T03:11:32.843Z,20.20
2022-10-14T03:14:04.359Z,21.80
2022-10-14T03:16:32.870Z,21.00
2022-10-14T03:19:00.727Z,21.40
2022-10-14T03:21:41.009Z,20.60
2022-10-14T03:24:13.007Z,20.50
2022-10-14T03:26:41.898Z,20.80
2022-10-14T03:29:09.856Z,20.30
2022-10-14T03:31:57.856Z,21.30
2022-10-14T03:34:32.688Z,21.20
2022-10-14T03:37:07.939Z,20.30
2022-10-14T03:39:38.869Z,20.60
2022-10-14T03:42:08.929Z,19.90
2022-10-14T03:44:41.732Z,21.60
2022-10-14T03:47:22.549Z,20.60
2022-10-14T03:49:50.354Z,20.90
2022-10-14T03:52:28.953Z,21.00
2022-10-14T03:55:01.623Z,21.50
2022-10-14T03:57:30.495Z,21.10
2022-10-14T03:59:59.481Z,21.30
2022-10-14T04:02:42.249Z,21.30
2022-10-14T04:05:26.073Z,20.90
2022-10-14T04:07:54.694Z,21.20
2022-10-14T04:10:23.469Z,18.90
2022-10-14T04:12:56.855Z,19.50
2022-10-14T04:15:31.210Z,19.90
2022-10-14T04:18:31.362Z,20.70
2022-10-14T04:21:04.226Z,21.90
2022-10-14T04:23:32.986Z,20.00
2022-10-14T04:26:07.960Z,21.40
2022-10-14T04:28:38.526Z,21.30
2022-10-14T04:31:12.224Z,21.30
2022-10-14T04:33:54.311Z,19.70
2022-10-14T04:36:27.161Z,21.20
2022-10-14T04:41:24.815Z,19.30
2022-10-14T04:43:54.222Z,19.90
2022-10-14T04:46:31.549Z,20.30
2022-10-14T04:48:59.538Z,20.70
2022-10-14T04:51:30.212Z,20.80
2022-10-14T04:54:18.351Z,19.80
2022-10-14T04:56:54.876Z,20.60
2022-10-14T04:59:23.245Z,20.90
2022-10-14T05:02:13.484Z,21.60
2022-10-14T05:04:53.130Z,22.80
2022-10-14T05:07:20.791Z,21.40
2022-10-14T05:09:56.155Z,20.90
2022-10-14T05:12:34.826Z,21.50
2022-10-14T05:15:05.289Z,22.40
2022-10-14T05:20:14.254Z,22.30
2022-10-14T05:22:44.631Z,20.30
2022-10-14T05:25:13.014Z,21.00
2022-10-14T05:27:41.085Z,21.40
2022-10-14T05:30:09.957Z,19.80
2022-10-14T05:32:41.267Z,21.60
2022-10-14T05:35:09.607Z,21.20
2022-10-14T05:37:41.475Z,20.40
2022-10-14T05:40:10.236Z,21.00
2022-10-14T05:42:38.344Z,20.70
2022-10-14T05:45:06.962Z,21.10
2022-10-14T05:47:36.950Z,22.20
2022-10-14T05:50:12.768Z,20.60
2022-10-14T05:52:46.735Z,22.00
2022-10-14T05:55:22.870Z,20.50
2022-10-14T05:57:56.387Z,20.30
2022-10-14T06:00:25.883Z,21.80
2022-10-14T06:02:57.797Z,20.80
2022-10-14T06:05:26.101Z,21.30
2022-10-14T06:07:53.919Z,22.00
2022-10-14T06:10:21.907Z,21.00
2022-10-14T06:12:49.751Z,20.30
2022-10-14T06:15:17.447Z,20.70
2022-10-14T06:17:45.281Z,20.00
2022-10-14T06:20:12.979Z,19.80
2022-10-14T06:22:40.742Z,20.20
2022-10-14T06:25:08.993Z,20.90
2022-10-14T06:27:36.993Z,21.70
2022-10-14T06:30:05.205Z,21.00
2022-10-14T06:32:33.085Z,20.30
2022-10-14T06:35:00.848Z,19.80
2022-10-14T06:37:28.841Z,21.40
2022-10-14T06:39:57.137Z,20.40
2022-10-14T06:42:25.252Z,20.60
2022-10-14T06:44:53.015Z,21.80
2022-10-14T06:47:21.083Z,20.10
2022-10-14T06:49:48.941Z,20.70
2022-10-14T06:52:16.605Z,20.60
2022-10-14T06:54:48.270Z,22.50
2022-10-14T06:57:17.072Z,20.30
2022-10-14T06:59:45.147Z,18.80
2022-10-14T07:02:13.022Z,19.60
2022-10-14T07:04:41.943Z,20.10
2022-10-14T07:07:09.916Z,19.60
2022-10-14T07:09:37.900Z,19.60
2022-10-14T07:12:05.841Z,19.90
2022-10-14T07:14:33.580Z,19.60
2022-10-14T07:17:01.451Z,21.70
2022-10-14T07:19:29.288Z,21.70
2022-10-14T07:21:56.869Z,21.60
2022-10-14T07:24:24.694Z,21.20
2022-10-14T07:26:52.790Z,21.00
2022-10-14T07:29:20.558Z,20.40
2022-10-14T07:31:48.477Z,20.00
2022-10-14T07:34:16.813Z,20.20
2022-10-14T07:36:44.713Z,20.60
2022-10-14T07:39:13.813Z,21.40
2022-10-14T07:41:41.761Z,19.50
2022-10-14T07:44:13.423Z,22.10
2022-10-14T07:46:44.462Z,22.60
2022-10-14T07:49:20.078Z,22.40
2022-10-14T07:51:48.670Z,22.00
2022-10-14T07:54:23.103Z,23.20
2022-10-14T07:56:51.385Z,22.10
2022-10-14T07:59:21.003Z,22.60
2022-10-14T08:01:50.476Z,22.20
2022-10-14T08:04:19.834Z,19.90
2022-10-14T08:06:48.827Z,18.70
2022-10-14T08:09:18.355Z,19.10
2022-10-14T08:11:46.558Z,20.00
2022-10-14T08:14:14.405Z,18.60
2022-10-14T08:16:42.088Z,19.10
2022-10-14T08:19:14.421Z,20.70
2022-10-14T08:21:43.559Z,20.50
2022-10-14T08:24:12.010Z,19.80
2022-10-14T08:26:49.451Z,20.20
2022-10-14T08:29:17.438Z,18.10
2022-10-14T08:31:45.179Z,17.60
2022-10-14T08:34:12.955Z,18.50
2022-10-14T08:36:40.790Z,16.50
2022-10-14T08:42:10.417Z,19.50
2022-10-14T08:44:53.416Z,18.20
2022-10-14T08:47:27.148Z,17.90
2022-10-14T08:50:03.144Z,18.20
2022-10-14T08:52:40.491Z,19.10
2022-10-14T08:55:36.004Z,17.50
2022-10-14T08:58:14.016Z,17.20
2022-10-14T09:00:45.776Z,15.60
2022-10-14T09:03:36.529Z,16.30
2022-10-14T09:06:10.633Z,15.80
2022-10-14T09:08:44.858Z,17.60
2022-10-14T09:11:16.565Z,15.70
2022-10-14T09:13:50.801Z,18.10
2022-10-14T09:16:25.687Z,17.10
2022-10-14T09:19:03.331Z,18.30
2022-10-14T09:21:52.664Z,16.00
2022-10-14T09:24:31.358Z,16.00
2022-10-14T09:27:22.008Z,17.70
2022-10-14T09:29:54.271Z,17.60
2022-10-14T09:32:42.054Z,16.80
2022-10-14T09:35:33.804Z,17.30
2022-10-14T09:38:01.774Z,16.60
2022-10-14T09:40:44.953Z,17.30
2022-10-14T09:43:18.275Z,16.60
2022-10-14T09:45:51.424Z,15.70
2022-10-14T09:48:25.416Z,16.10
2022-10-14T09:50:56.793Z,16.80
2022-10-14T09:53:33.691Z,15.90
2022-10-14T09:56:04.770Z,15.80
2022-10-14T09:58:57.434Z,16.80
2022-10-14T10:01:29.618Z,14.70
2022-10-14T10:04:10.823Z,15.30
2022-10-14T10:06:54.658Z,15.70
2022-10-14T10:09:22.558Z,14.60
2022-10-14T10:11:50.406Z,14.30
2022-10-14T10:14:27.530Z,15.00
2022-10-14T10:17:07.661Z,15.40
2022-10-14T10:19:44.181Z,14.10
2022-10-14T10:22:23.055Z,14.60
2022-10-14T10:25:13.890Z,14.50
2022-10-14T10:27:47.696Z,12.90
2022-10-14T10:30:19.532Z,13.80
2022-10-14T10:33:02.794Z,14.00
2022-10-14T10:35:59.671Z,12.90
2022-10-14T10:39:03.271Z,12.90
2022-10-14T10:42:06.366Z,14.30
2022-10-14T10:44:47.547Z,13.30
2022-10-14T10:47:45.875Z,13.00
2022-10-14T10:50:27.572Z,13.20
2022-10-14T10:53:20.303Z,11.40
2022-10-14T10:56:33.633Z,9.90
2022-10-14T10:59:30.569Z,10.60
2022-10-14T11:02:26.922Z,11.60
2022-10-14T11:05:09.746Z,11.30
2022-10-14T11:08:25.440Z,10.50
2022-10-14T11:11:36.925Z,14.00
2022-10-14T11:14:42.148Z,11.50
2022-10-14T11:17:28.452Z,11.50
2022-10-14T11:20:21.527Z,12.10
2022-10-14T11:22:55.575Z,12.40
2022-10-14T11:25:49.479Z,11.70
2022-10-14T11:28:33.275Z,10.40
2022-10-14T11:31:15.087Z,11.90
2022-10-14T11:34:08.258Z,11.40
2022-10-14T11:36:43.517Z,13.60
2022-10-14T11:39:35.691Z,11.30
2022-10-14T11:42:13.753Z,12.00
2022-10-14T11:44:43.126Z,11.50
2022-10-14T11:47:26.734Z,11.20
2022-10-14T11:50:02.011Z,12.00
2022-10-14T11:52:38.016Z,11.50
2022-10-14T11:55:29.867Z,10.90
2022-10-14T11:58:26.807Z,9.50
2022-10-14T12:01:00.206Z,10.70
2022-10-14T12:03:53.588Z,10.40
2022-10-14T12:06:38.330Z,9.80
2022-10-14T12:09:32.961Z,9.60
2022-10-14T12:12:07.603Z,11.60
2022-10-14T12:14:40.074Z,10.40
2022-10-14T12:17:19.466Z,10.20
2022-10-14T12:19:47.851Z,9.30
2022-10-14T12:22:21.121Z,9.80
2022-10-14T12:24:54.977Z,9.10
2022-10-14T12:27:27.036Z,9.10
2022-10-14T12:29:58.423Z,10.50
2022-10-14T12:32:28.261Z,11.20
2022-10-14T12:34:58.745Z,8.60
2022-10-14T12:37:34.964Z,9.40
2022-10-14T12:40:03.456Z,8.80
2022-10-14T12:42:34.865Z,10.00
2022-10-14T12:45:16.250Z,13.00
2022-10-14T12:47:44.174Z,13.40
2022-10-14T12:50:14.970Z,8.40
2022-10-14T12:52:55.359Z,6.50
2022-10-14T12:55:26.174Z,5.50
2022-10-14T12:58:03.736Z,6.80
2022-10-14T13:00:39.310Z,6.30
2022-10-14T13:03:19.967Z,6.60
2022-10-14T13:05:48.089Z,6.10
2022-10-14T13:08:16.042Z,6.80
2022-10-14T13:10:48.063Z,7.50
2022-10-14T13:13:55.002Z,6.70
2022-10-14T13:16:26.014Z,7.40
2022-10-14T13:18:57.880Z,8.30
2022-10-14T13:21:31.375Z,8.00
2022-10-14T13:24:16.444Z,7.40
2022-10-14T13:26:50.207Z,8.00
2022-10-14T13:29:20.786Z,7.80
2022-10-14T13:31:54.659Z,8.00
2022-10-14T13:34:41.738Z,7.40
2022-10-14T13:37:34.119Z,7.60
2022-10-14T13:40:37.247Z,8.30
2022-10-14T13:43:13.361Z,7.90
2022-10-14T13:45:45.237Z,7.60
2022-10-14T13:48:17.105Z,7.80
2022-10-14T13:50:48.777Z,7.30
2022-10-14T13:53:21.922Z,7.00
2022-10-14T13:55:54.556Z,6.90
2022-10-14T13:58:24.699Z,6.30
2022-10-14T14:00:55.278Z,6.60
2022-10-14T14:03:41.610Z,7.50
2022-10-14T14:06:17.515Z,7.20
2022-10-14T14:08:54.776Z,7.50
2022-10-14T14:11:25.663Z,7.30
2022-10-14T14:14:04.214Z,6.50
2022-10-14T14:16:35.569Z,7.00
2022-10-14T14:19:08.786Z,6.20
2022-10-14T14:21:37.642Z,6.20
2022-10-14T14:24:15.696Z,6.30
2022-10-14T14:26:47.292Z,5.40
2022-10-14T14:29:21.308Z,5.50
2022-10-14T14:34:38.808Z,5.50
2022-10-14T14:37:34.269Z,4.70
2022-10-14T14:40:01.231Z,4.70
2022-10-14T14:42:36.203Z,4.80
2022-10-14T14:45:26.009Z,4.40
2022-10-14T14:47:57.013Z,4.30
2022-10-14T14:50:32.788Z,4.30
2022-10-14T14:53:22.530Z,3.70
2022-10-14T14:55:53.355Z,4.50
2022-10-14T14:58:26.480Z,4.10
2022-10-14T15:00:55.183Z,3.80
2022-10-14T15:03:26.253Z,4.30
2022-10-14T15:06:02.615Z,4.30
2022-10-14T15:08:39.861Z,4.50
2022-10-14T15:11:07.560Z,4.10
2022-10-14T15:13:38.625Z,4.50
2022-10-14T15:16:07.730Z,3.90
2022-10-14T15:18:37.913Z,4.60
2022-10-14T15:21:11.970Z,4.60
2022-10-14T15:23:46.140Z,3.90
2022-10-14T15:26:34.415Z,4.50
2022-10-14T15:29:08.147Z,4.70
2022-10-14T15:31:37.392Z,4.00
2022-10-14T15:34:06.022Z,4.50
2022-10-14T15:36:34.667Z,3.60
2022-10-14T15:39:03.035Z,3.90
2022-10-14T15:41:30.834Z,4.60
2022-10-14T15:43:58.631Z,4.80
2022-10-14T15:46:46.204Z,4.50
2022-10-14T15:49:25.725Z,4.10
2022-10-14T15:51:53.634Z,4.50
2022-10-14T15:54:27.043Z,4.40
2022-10-14T15:59:29.223Z,5.80
2022-10-14T16:01:57.355Z,5.10
2022-10-14T16:04:27.815Z,5.00
2022-10-14T16:06:57.636Z,4.70
2022-10-14T16:09:27.826Z,4.90
2022-10-14T16:11:58.476Z,5.10
2022-10-14T16:14:27.650Z,5.20
2022-10-14T16:16:55.671Z,6.20
2022-10-14T16:19:24.345Z,5.50
2022-10-14T16:21:52.105Z,5.60
2022-10-14T16:24:21.275Z,6.00
2022-10-14T16:26:49.218Z,6.10
2022-10-14T16:29:18.234Z,5.70
2022-10-14T16:31:50.381Z,6.00
2022-10-14T16:34:19.952Z,5.70
2022-10-14T16:36:51.363Z,6.60
2022-10-14T16:39:20.090Z,6.20
2022-10-14T16:41:49.743Z,7.00
2022-10-14T16:44:27.775Z,7.40
2022-10-14T16:47:16.129Z,7.40
2022-10-14T16:49:45.895Z,6.80
2022-10-14T16:52:14.301Z,7.20
2022-10-14T16:54:41.989Z,6.90
2022-10-14T16:57:10.802Z,7.40
2022-10-14T16:59:39.087Z,7.40
2022-10-14T17:02:11.032Z,6.60
2022-10-14T17:04:39.419Z,7.10
2022-10-14T17:07:08.001Z,7.00
2022-10-14T17:09:36.510Z,7.10
2022-10-14T17:12:08.120Z,6.90
2022-10-14T17:14:38.955Z,7.60
2022-10-14T17:17:06.898Z,7.40
2022-10-14T17:19:35.090Z,7.00
2022-10-14T17:22:03.317Z,6.40
2022-10-14T17:24:31.004Z,6.30
2022-10-14T17:26:58.868Z,5.60
2022-10-14T17:29:28.626Z,6.20
2022-10-14T17:31:56.702Z,6.20
2022-10-14T17:34:24.704Z,6.20
2022-10-14T17:36:53.374Z,6.70
2022-10-14T17:39:27.524Z,6.90
2022-10-14T17:41:57.674Z,7.20
2022-10-14T17:44:26.229Z,7.00
2022-10-14T17:46:54.154Z,7.60
2022-10-14T17:49:21.996Z,8.20
2022-10-14T17:51:50.119Z,8.20
2022-10-14T17:54:17.989Z,8.50
2022-10-14T17:56:45.860Z,9.70
2022-10-14T17:59:14.374Z,9.90
2022-10-14T18:04:30.757Z,8.20
2022-10-14T18:06:59.040Z,9.30
2022-10-14T18:09:26.675Z,9.20
2022-10-14T18:12:10.641Z,9.40
2022-10-14T18:14:40.613Z,10.10
2022-10-14T18:17:12.806Z,9.20
2022-10-14T18:19:41.510Z,10.10
2022-10-14T18:22:11.090Z,10.20
2022-10-14T18:24:39.478Z,11.00
2022-10-14T18:27:07.362Z,11.80
2022-10-14T18:29:35.247Z,12.50
2022-10-14T18:32:03.980Z,11.20
2022-10-14T18:34:32.015Z,12.30
2022-10-14T18:36:59.566Z,12.40
2022-10-14T18:39:27.421Z,13.00
2022-10-14T18:41:55.027Z,11.90
2022-10-14T18:44:22.733Z,12.60
2022-10-14T18:46:50.907Z,13.90
2022-10-14T18:49:18.834Z,14.10
2022-10-14T18:51:46.591Z,14.40
2022-10-14T18:54:17.475Z,13.50
2022-10-14T18:56:45.981Z,13.90
2022-10-14T18:59:16.023Z,13.90
2022-10-14T19:01:44.418Z,14.20
2022-10-14T19:04:14.392Z,15.20
2022-10-14T19:06:44.975Z,15.50
2022-10-14T19:09:14.040Z,14.60
2022-10-14T19:11:42.101Z,15.10
2022-10-14T19:14:10.652Z,15.20
2022-10-14T19:16:39.416Z,13.80
2022-10-14T19:19:16.674Z,16.50
2022-10-14T19:21:48.018Z,16.50
2022-10-14T19:24:15.965Z,15.30
2022-10-14T19:26:45.644Z,15.60
2022-10-14T19:29:15.120Z,16.00
2022-10-14T19:31:44.018Z,17.30
2022-10-14T19:34:14.737Z,17.40
2022-10-14T19:36:44.251Z,16.70
2022-10-14T19:41:45.034Z,16.10
2022-10-14T19:44:14.978Z,15.60
2022-10-14T19:46:44.554Z,15.70
2022-10-14T19:51:42.266Z,14.80
2022-10-14T19:54:12.199Z,15.00
2022-10-14T19:56:40.726Z,15.00
2022-10-14T19:59:09.157Z,15.60
2022-10-14T20:01:36.901Z,15.00
2022-10-14T20:04:04.988Z,16.00
2022-10-14T20:06:35.856Z,14.70
2022-10-14T20:09:04.259Z,15.60
2022-10-14T20:11:32.537Z,15.50
2022-10-14T20:14:00.757Z,15.90
2022-10-14T20:16:28.578Z,15.10
2022-10-14T20:18:56.618Z,15.20
2022-10-14T20:21:24.756Z,15.70
2022-10-14T20:23:52.339Z,14.90
2022-10-14T20:26:21.554Z,13.70
2022-10-14T20:28:50.324Z,15.20
2022-10-14T20:31:21.854Z,15.00
2022-10-14T20:33:49.713Z,16.00
2022-10-14T20:36:21.810Z,15.30
2022-10-14T20:38:50.753Z,15.50
2022-10-14T20:41:21.553Z,14.50
2022-10-14T20:43:50.018Z,14.20
2022-10-14T20:46:18.077Z,14.10
2022-10-14T20:48:46.558Z,14.70
2022-10-14T20:51:17.892Z,13.30
2022-10-14T20:53:45.524Z,14.90
2022-10-14T20:56:14.464Z,13.10
2022-10-14T20:58:42.624Z,13.50
2022-10-14T21:01:16.097Z,13.50
2022-10-14T21:03:45.828Z,15.50
2022-10-14T21:06:16.607Z,13.00
2022-10-14T21:08:45.039Z,14.10
2022-10-14T21:11:15.812Z,14.90
2022-10-14T21:13:48.375Z,13.40
2022-10-14T21:16:46.538Z,14.00
2022-10-14T21:19:14.286Z,14.20
2022-10-14T21:21:45.332Z,14.70
2022-10-14T21:24:16.935Z,14.80
2022-10-14T21:26:50.559Z,14.10
2022-10-14T21:29:20.223Z,15.20
2022-10-14T21:31:49.119Z,14.20
2022-10-14T21:34:16.871Z,14.70
2022-10-14T21:36:47.070Z,13.60
2022-10-14T21:39:16.905Z,15.90
2022-10-14T21:41:45.354Z,14.90
2022-10-14T21:44:17.958Z,13.80
2022-10-14T21:46:46.419Z,14.50
2022-10-14T21:49:14.313Z,14.60
2022-10-14T21:51:42.576Z,13.80
2022-10-14T21:54:13.203Z,14.70
2022-10-14T21:56:40.850Z,14.20
2022-10-14T21:59:09.780Z,13.60
2022-10-14T22:01:37.676Z,15.90
2022-10-14T22:04:06.432Z,17.00
2022-10-14T22:06:36.408Z,16.70
2022-10-14T22:09:06.784Z,17.00
2022-10-14T22:11:37.817Z,15.90
2022-10-14T22:14:07.871Z,17.20
2022-10-14T22:16:35.751Z,15.40
2022-10-14T22:19:05.221Z,14.60
2022-10-14T22:21:35.293Z,15.00
2022-10-14T22:24:04.012Z,16.40
2022-10-14T22:26:32.506Z,15.90
2022-10-14T22:29:02.978Z,16.70
2022-10-14T22:31:34.867Z,15.90
2022-10-14T22:34:04.774Z,15.70
2022-10-14T22:36:34.810Z,16.20
2022-10-14T22:39:06.409Z,15.00
2022-10-14T22:41:35.890Z,15.20
2022-10-14T22:44:05.414Z,16.50
2022-10-14T22:46:35.123Z,16.40
2022-10-14T22:49:03.456Z,14.60
2022-10-14T22:51:35.392Z,14.70
2022-10-14T22:54:03.626Z,13.80
2022-10-14T22:56:32.203Z,14.70
2022-10-14T22:59:02.962Z,14.50
2022-10-14T23:01:30.727Z,14.30
2022-10-14T23:03:59.423Z,14.10
2022-10-14T23:06:28.375Z,14.50
2022-10-14T23:11:25.173Z,14.30
2022-10-14T23:13:53.685Z,13.30
2022-10-14T23:16:24.547Z,14.70
2022-10-14T23:18:53.601Z,15.00
2022-10-14T23:21:27.239Z,15.00
2022-10-14T23:24:00.498Z,13.00
2022-10-14T23:26:31.883Z,16.00
2022-10-14T23:29:01.074Z,15.00
2022-10-14T23:31:31.336Z,14.50
2022-10-14T23:34:01.158Z,14.70
2022-10-14T23:36:29.750Z,13.70
2022-10-14T23:38:58.558Z,13.70
2022-10-14T23:41:26.638Z,14.80
2022-10-14T23:43:56.248Z,13.60
2022-10-14T23:46:24.569Z,13.80
2022-10-14T23:49:06.621Z,14.40
2022-10-14T23:51:40.874Z,14.50
2022-10-14T23:54:08.730Z,15.00
2022-10-14T23:56:36.435Z,13.40
2022-10-14T23:59:04.152Z,13.30
